createdAt,value
2023-07-07T00:03:32.211Z,13.24
2023-07-07T00:05:58.946Z,13.20
2023-07-07T00:08:25.829Z,13.40
2023-07-07T00:10:53.612Z,13.42
2023-07-07T00:13:21.583Z,13.53
2023-07-07T00:15:48.433Z,13.44
2023-07-07T00:18:27.559Z,13.38
2023-07-07T00:21:00.510Z,13.51
2023-07-07T00:23:30.874Z,13.52
2023-07-07T00:26:09.647Z,13.51
2023-07-07T00:28:37.089Z,13.37
2023-07-07T00:31:06.309Z,13.33
2023-07-07T00:33:33.258Z,13.39
2023-07-07T00:36:00.610Z,13.47
2023-07-07T00:38:27.690Z,13.46
2023-07-07T00:40:54.723Z,13.46
2023-07-07T00:43:23.444Z,13.42
2023-07-07T00:45:50.852Z,13.51
2023-07-07T00:48:22.306Z,13.44
2023-07-07T00:50:56.175Z,13.27
2023-07-07T00:53:25.119Z,13.18
2023-07-07T00:55:57.627Z,13.10
2023-07-07T00:58:27.135Z,12.95
2023-07-07T01:01:02.170Z,12.89
2023-07-07T01:03:38.719Z,12.89
2023-07-07T01:06:09.317Z,12.80
2023-07-07T01:08:37.768Z,12.88
2023-07-07T01:11:05.422Z,12.76
2023-07-07T01:13:32.740Z,12.88
2023-07-07T01:16:32.133Z,12.76
2023-07-07T01:19:18.065Z,12.62
2023-07-07T01:21:54.765Z,12.54
2023-07-07T01:24:33.429Z,12.57
2023-07-07T01:27:21.611Z,12.62
2023-07-07T01:30:19.486Z,12.42
2023-07-07T01:32:47.155Z,12.34
2023-07-07T01:35:33.057Z,12.27
2023-07-07T01:38:40.906Z,12.40
2023-07-07T01:41:15.794Z,12.48
2023-07-07T01:44:03.336Z,12.58
2023-07-07T01:46:58.424Z,12.51
2023-07-07T01:49:54.680Z,12.70
2023-07-07T01:52:21.426Z,12.57
2023-07-07T01:54:56.253Z,12.56
2023-07-07T01:57:25.841Z,12.46
2023-07-07T02:00:08.888Z,12.40
2023-07-07T02:02:44.310Z,12.23
2023-07-07T02:05:12.735Z,12.03
2023-07-07T02:07:40.946Z,12.10
2023-07-07T02:10:08.187Z,11.93
2023-07-07T02:12:36.218Z,11.90
2023-07-07T02:15:04.097Z,11.83
2023-07-07T02:17:31.816Z,11.74
2023-07-07T02:19:58.657Z,11.84
2023-07-07T02:22:26.145Z,11.83
2023-07-07T02:24:52.988Z,11.60
2023-07-07T02:27:20.553Z,11.83
2023-07-07T02:29:47.493Z,11.91
2023-07-07T02:32:16.150Z,11.94
2023-07-07T02:34:49.083Z,11.96
2023-07-07T02:37:19.909Z,11.90
2023-07-07T02:39:47.277Z,11.72
2023-07-07T02:42:14.857Z,11.65
2023-07-07T02:44:42.300Z,11.53
2023-07-07T02:47:10.172Z,11.51
2023-07-07T02:49:37.602Z,11.58
2023-07-07T02:52:06.081Z,11.17
2023-07-07T02:54:33.342Z,10.99
2023-07-07T02:57:00.388Z,11.02
2023-07-07T02:59:27.457Z,11.04
2023-07-07T03:01:54.229Z,11.05
2023-07-07T03:04:21.634Z,11.14
2023-07-07T03:06:49.028Z,11.16
2023-07-07T03:09:16.000Z,10.99
2023-07-07T03:11:46.082Z,11.04
2023-07-07T03:14:16.951Z,11.19
2023-07-07T03:16:48.379Z,11.34
2023-07-07T03:19:21.173Z,11.36
2023-07-07T03:22:06.197Z,11.54
2023-07-07T03:24:54.864Z,11.59
2023-07-07T03:27:31.094Z,11.55
2023-07-07T03:29:58.544Z,11.13
2023-07-07T03:32:26.219Z,11.16
2023-07-07T03:35:00.190Z,11.14
2023-07-07T03:37:29.131Z,11.07
2023-07-07T03:39:56.544Z,11.16
2023-07-07T03:42:23.359Z,11.35
2023-07-07T03:44:50.696Z,11.44
2023-07-07T03:47:19.109Z,11.34
2023-07-07T03:49:46.066Z,11.19
2023-07-07T03:52:14.117Z,11.41
2023-07-07T03:54:42.043Z,11.50
2023-07-07T03:57:12.056Z,11.70
2023-07-07T03:59:39.161Z,11.84
2023-07-07T04:02:07.183Z,12.08
2023-07-07T04:04:34.138Z,12.13
2023-07-07T04:07:04.078Z,12.18
2023-07-07T04:09:31.741Z,12.38
2023-07-07T04:11:58.527Z,12.34
2023-07-07T04:14:29.801Z,12.22
2023-07-07T04:16:56.649Z,12.44
2023-07-07T04:19:23.571Z,12.60
2023-07-07T04:21:50.934Z,12.63
2023-07-07T04:24:21.429Z,12.40
2023-07-07T04:26:48.464Z,12.18
2023-07-07T04:29:15.424Z,12.16
2023-07-07T04:31:46.886Z,12.32
2023-07-07T04:34:16.039Z,12.50
2023-07-07T04:36:45.725Z,12.55
2023-07-07T04:39:13.337Z,12.72
2023-07-07T04:41:40.137Z,12.68
2023-07-07T04:44:07.029Z,12.90
2023-07-07T04:46:36.814Z,12.92
2023-07-07T04:49:09.069Z,12.88
2023-07-07T04:51:41.499Z,13.05
2023-07-07T04:54:16.006Z,13.15
2023-07-07T04:56:45.760Z,13.64
2023-07-07T04:59:12.547Z,13.53
2023-07-07T05:01:40.230Z,13.71
2023-07-07T05:04:08.643Z,13.93
2023-07-07T05:06:38.914Z,13.89
2023-07-07T05:09:11.159Z,14.14
2023-07-07T05:11:38.308Z,14.12
2023-07-07T05:14:05.373Z,14.30
2023-07-07T05:16:38.637Z,14.36
2023-07-07T05:19:07.036Z,14.46
2023-07-07T05:21:33.974Z,14.82
2023-07-07T05:24:01.052Z,14.51
2023-07-07T05:26:28.851Z,14.76
2023-07-07T05:29:02.005Z,15.03
2023-07-07T05:31:29.178Z,15.22
2023-07-07T05:33:56.045Z,15.23
2023-07-07T05:36:23.104Z,15.60
2023-07-07T05:38:51.403Z,15.58
2023-07-07T05:41:18.263Z,15.58
2023-07-07T05:43:45.240Z,16.06
2023-07-07T05:46:14.793Z,16.17
2023-07-07T05:48:42.983Z,16.45
2023-07-07T05:51:13.941Z,16.69
2023-07-07T05:53:42.189Z,16.77
2023-07-07T05:56:13.687Z,16.66
2023-07-07T05:58:43.224Z,16.88
2023-07-07T06:01:11.563Z,16.65
2023-07-07T06:03:40.462Z,16.87
2023-07-07T06:06:08.592Z,17.24
2023-07-07T06:08:35.698Z,17.57
2023-07-07T06:11:03.028Z,17.70
2023-07-07T06:13:30.097Z,17.43
2023-07-07T06:15:57.454Z,17.51
2023-07-07T06:18:24.624Z,17.88
2023-07-07T06:20:54.010Z,17.96
2023-07-07T06:23:21.637Z,18.44
2023-07-07T06:25:49.236Z,17.83
2023-07-07T06:28:17.419Z,18.06
2023-07-07T06:30:44.856Z,18.48
2023-07-07T06:33:11.752Z,18.55
2023-07-07T06:35:38.576Z,18.55
2023-07-07T06:38:06.467Z,18.45
2023-07-07T06:40:33.378Z,19.08
2023-07-07T06:43:00.229Z,19.36
2023-07-07T06:45:27.225Z,19.77
2023-07-07T06:47:55.006Z,19.30
2023-07-07T06:50:33.395Z,19.75
2023-07-07T06:53:00.372Z,20.12
2023-07-07T06:55:27.487Z,20.33
2023-07-07T06:57:54.356Z,20.92
2023-07-07T07:00:22.478Z,20.81
2023-07-07T07:02:49.922Z,21.23
2023-07-07T07:05:17.105Z,21.11
2023-07-07T07:07:43.906Z,21.03
2023-07-07T07:10:11.980Z,20.86
2023-07-07T07:12:38.836Z,21.53
2023-07-07T07:15:06.472Z,21.29
2023-07-07T07:17:36.081Z,21.35
2023-07-07T07:20:05.713Z,21.78
2023-07-07T07:22:32.534Z,22.46
2023-07-07T07:24:59.447Z,21.92
2023-07-07T07:27:26.737Z,21.50
2023-07-07T07:29:53.661Z,21.82
2023-07-07T07:32:20.412Z,22.29
2023-07-07T07:34:47.415Z,23.19
2023-07-07T07:37:15.816Z,21.92
2023-07-07T07:39:43.205Z,23.05
2023-07-07T07:42:10.920Z,23.27
2023-07-07T07:44:37.918Z,23.58
2023-07-07T07:47:05.076Z,23.82
2023-07-07T07:49:31.932Z,23.32
2023-07-07T07:51:58.726Z,23.68
2023-07-07T07:54:26.550Z,24.02
2023-07-07T07:56:53.577Z,24.58
2023-07-07T07:59:21.064Z,25.01
2023-07-07T08:01:48.119Z,25.23
2023-07-07T08:04:15.075Z,23.74
2023-07-07T08:06:43.814Z,23.48
2023-07-07T08:09:12.447Z,23.45
2023-07-07T08:11:42.872Z,23.62
2023-07-07T08:14:19.772Z,24.54
2023-07-07T08:16:47.936Z,24.52
2023-07-07T08:19:18.155Z,23.83
2023-07-07T08:21:47.197Z,23.83
2023-07-07T08:24:14.313Z,24.29
2023-07-07T08:26:41.924Z,25.18
2023-07-07T08:29:24.694Z,25.95
2023-07-07T08:31:52.625Z,25.62
2023-07-07T08:34:19.916Z,25.42
2023-07-07T08:36:48.887Z,25.91
2023-07-07T08:39:23.551Z,25.27
2023-07-07T08:41:53.911Z,26.02
2023-07-07T08:44:23.994Z,25.35
2023-07-07T08:46:54.488Z,26.45
2023-07-07T08:49:33.039Z,25.99
2023-07-07T08:52:16.471Z,25.09
2023-07-07T08:55:07.807Z,24.98
2023-07-07T08:57:45.535Z,25.49
2023-07-07T09:00:22.056Z,26.72
2023-07-07T09:03:15.023Z,26.10
2023-07-07T09:05:57.665Z,26.01
2023-07-07T09:08:41.603Z,26.08
2023-07-07T09:11:15.870Z,26.94
2023-07-07T09:13:46.029Z,28.01
2023-07-07T09:16:27.630Z,27.43
2023-07-07T09:19:21.376Z,28.36
2023-07-07T09:22:05.181Z,29.09
2023-07-07T09:24:59.184Z,30.00
2023-07-07T09:27:36.006Z,27.75
2023-07-07T09:30:20.706Z,27.95
2023-07-07T09:32:50.026Z,28.55
2023-07-07T09:35:20.292Z,29.23
2023-07-07T09:38:21.044Z,29.89
2023-07-07T09:41:25.664Z,29.61
2023-07-07T09:44:15.980Z,28.41
2023-07-07T09:47:00.190Z,26.97
2023-07-07T09:49:52.739Z,27.99
2023-07-07T09:52:37.975Z,27.23
2023-07-07T09:55:23.314Z,26.49
2023-07-07T09:58:05.074Z,25.82
2023-07-07T10:00:45.266Z,25.19
2023-07-07T10:03:36.894Z,25.26
2023-07-07T10:06:08.261Z,24.80
2023-07-07T10:08:35.108Z,24.92
2023-07-07T10:13:53.017Z,25.18
2023-07-07T10:16:31.949Z,25.38
2023-07-07T10:19:01.821Z,25.89
2023-07-07T10:21:29.113Z,26.08
2023-07-07T10:23:55.960Z,26.33
2023-07-07T10:26:23.958Z,26.49
2023-07-07T10:28:54.271Z,26.38
2023-07-07T10:31:21.139Z,26.71
2023-07-07T10:33:52.223Z,27.45
2023-07-07T10:36:19.372Z,27.90
2023-07-07T10:38:56.136Z,27.17
2023-07-07T10:41:28.500Z,27.93
2023-07-07T10:43:56.030Z,26.93
2023-07-07T10:46:23.092Z,27.76
2023-07-07T10:48:53.870Z,27.71
2023-07-07T10:51:20.830Z,29.48
2023-07-07T10:53:51.358Z,29.74
2023-07-07T10:56:31.713Z,29.50
2023-07-07T10:59:17.193Z,30.56
2023-07-07T11:02:25.752Z,31.03
2023-07-07T11:04:55.904Z,31.72
2023-07-07T11:07:26.062Z,31.12
2023-07-07T11:09:57.043Z,30.03
2023-07-07T11:12:51.814Z,30.87
2023-07-07T11:15:39.594Z,30.55
2023-07-07T11:18:13.077Z,31.43
2023-07-07T11:21:00.915Z,30.88
2023-07-07T11:23:36.700Z,31.03
2023-07-07T11:26:19.275Z,28.86
2023-07-07T11:29:09.500Z,28.13
2023-07-07T11:32:25.647Z,27.52
2023-07-07T11:35:11.963Z,28.94
2023-07-07T11:37:58.833Z,30.45
2023-07-07T11:40:33.563Z,31.71
2023-07-07T11:43:03.484Z,32.06
2023-07-07T11:45:35.153Z,31.92
2023-07-07T11:48:21.158Z,32.22
2023-07-07T11:51:20.781Z,32.35
2023-07-07T11:54:15.311Z,32.52
2023-07-07T11:57:27.216Z,33.01
2023-07-07T12:00:12.309Z,32.39
2023-07-07T12:02:55.161Z,33.48
2023-07-07T12:05:30.974Z,33.33
2023-07-07T12:08:16.612Z,33.91
2023-07-07T12:10:53.230Z,33.89
2023-07-07T12:13:26.764Z,32.71
2023-07-07T12:16:06.845Z,32.04
2023-07-07T12:18:37.640Z,31.69
2023-07-07T12:21:11.438Z,32.92
2023-07-07T12:23:42.102Z,33.05
2023-07-07T12:26:27.847Z,32.43
2023-07-07T12:29:00.434Z,30.94
2023-07-07T12:31:29.448Z,31.62
2023-07-07T12:33:56.959Z,31.72
2023-07-07T12:36:29.856Z,32.38
2023-07-07T12:39:01.048Z,32.32
2023-07-07T12:41:30.252Z,32.55
2023-07-07T12:44:03.915Z,33.23
2023-07-07T12:46:34.055Z,32.29
2023-07-07T12:49:08.076Z,32.86
2023-07-07T12:51:38.672Z,32.16
2023-07-07T12:54:05.862Z,31.58
2023-07-07T12:56:32.967Z,31.45
2023-07-07T12:59:02.759Z,31.93
2023-07-07T13:01:35.317Z,32.25
2023-07-07T13:04:12.436Z,32.98
2023-07-07T13:06:41.497Z,33.14
2023-07-07T13:09:12.579Z,33.42
2023-07-07T13:11:44.898Z,33.83
2023-07-07T13:14:30.715Z,34.29
2023-07-07T13:17:03.780Z,34.41
2023-07-07T13:19:34.083Z,34.32
2023-07-07T13:22:11.082Z,34.29
2023-07-07T13:24:43.940Z,33.74
2023-07-07T13:27:22.759Z,34.23
2023-07-07T13:29:56.506Z,34.46
2023-07-07T13:32:27.401Z,34.23
2023-07-07T13:34:54.918Z,35.08
2023-07-07T13:37:22.055Z,35.06
2023-07-07T13:39:49.123Z,35.15
2023-07-07T13:42:30.740Z,34.92
2023-07-07T13:45:04.360Z,34.47
2023-07-07T13:47:34.251Z,34.65
2023-07-07T13:50:07.261Z,34.71
2023-07-07T13:52:36.355Z,33.15
2023-07-07T13:55:03.612Z,34.26
2023-07-07T13:57:33.822Z,33.09
2023-07-07T14:00:09.050Z,33.40
2023-07-07T14:02:45.926Z,32.84
2023-07-07T14:05:18.793Z,32.08
2023-07-07T14:07:47.606Z,32.52
2023-07-07T14:10:28.940Z,33.27
2023-07-07T14:12:57.409Z,32.92
2023-07-07T14:15:45.015Z,32.77
2023-07-07T14:18:13.433Z,32.97
2023-07-07T14:20:50.430Z,33.16
2023-07-07T14:23:19.084Z,31.25
2023-07-07T14:25:48.180Z,30.60
2023-07-07T14:28:21.551Z,30.29
2023-07-07T14:30:51.168Z,31.10
2023-07-07T14:33:25.825Z,31.77
2023-07-07T14:36:01.109Z,32.22
2023-07-07T14:38:36.729Z,32.75
2023-07-07T14:41:12.375Z,32.93
2023-07-07T14:43:44.650Z,33.21
2023-07-07T14:46:24.557Z,33.43
2023-07-07T14:48:54.430Z,33.36
2023-07-07T14:51:34.574Z,33.49
2023-07-07T14:54:05.083Z,33.46
2023-07-07T14:56:38.040Z,33.62
2023-07-07T14:59:19.650Z,33.52
2023-07-07T15:01:56.865Z,33.60
2023-07-07T15:04:29.922Z,33.63
2023-07-07T15:06:56.868Z,33.40
2023-07-07T15:09:24.708Z,33.43
2023-07-07T15:11:52.800Z,33.17
2023-07-07T15:14:19.596Z,32.39
2023-07-07T15:16:48.515Z,31.85
2023-07-07T15:19:18.104Z,32.08
2023-07-07T15:21:45.902Z,32.86
2023-07-07T15:24:13.045Z,32.82
2023-07-07T15:26:41.844Z,32.97
2023-07-07T15:29:18.727Z,33.12
2023-07-07T15:31:50.190Z,32.83
2023-07-07T15:34:17.535Z,32.77
2023-07-07T15:36:44.468Z,32.80
2023-07-07T15:39:13.814Z,32.85
2023-07-07T15:41:41.407Z,32.86
2023-07-07T15:44:08.335Z,32.20
2023-07-07T15:46:44.386Z,33.13
2023-07-07T15:49:17.577Z,33.52
2023-07-07T15:51:46.788Z,33.21
2023-07-07T15:54:14.010Z,33.53
2023-07-07T15:56:44.217Z,33.57
2023-07-07T15:59:25.146Z,33.48
2023-07-07T16:01:54.340Z,33.60
2023-07-07T16:04:22.965Z,33.51
2023-07-07T16:06:54.121Z,33.74
2023-07-07T16:09:24.082Z,33.83
2023-07-07T16:11:51.367Z,32.74
2023-07-07T16:14:18.112Z,32.37
2023-07-07T16:16:47.758Z,32.33
2023-07-07T16:19:17.352Z,32.04
2023-07-07T16:21:44.740Z,32.24
2023-07-07T16:24:11.846Z,32.34
2023-07-07T16:26:40.558Z,32.30
2023-07-07T16:29:13.962Z,32.41
2023-07-07T16:31:41.326Z,32.16
2023-07-07T16:34:08.271Z,32.09
2023-07-07T16:36:35.521Z,32.32
2023-07-07T16:39:02.663Z,32.17
2023-07-07T16:41:30.189Z,31.95
2023-07-07T16:43:59.714Z,31.97
2023-07-07T16:46:27.425Z,32.21
2023-07-07T16:48:54.898Z,32.72
2023-07-07T16:51:24.732Z,32.49
2023-07-07T16:53:52.143Z,32.63
2023-07-07T16:56:26.854Z,32.41
2023-07-07T16:58:54.874Z,32.83
2023-07-07T17:01:22.760Z,32.45
2023-07-07T17:03:49.908Z,32.56
2023-07-07T17:06:26.288Z,31.79
2023-07-07T17:08:58.050Z,31.48
2023-07-07T17:11:27.727Z,31.17
2023-07-07T17:13:55.241Z,31.11
2023-07-07T17:16:23.785Z,30.76
2023-07-07T17:18:54.464Z,30.76
2023-07-07T17:21:23.771Z,31.13
2023-07-07T17:23:51.644Z,30.93
2023-07-07T17:26:27.142Z,30.72
2023-07-07T17:28:55.525Z,30.70
2023-07-07T17:31:26.932Z,30.63
2023-07-07T17:33:56.364Z,30.75
2023-07-07T17:36:27.809Z,30.61
2023-07-07T17:38:57.225Z,30.31
2023-07-07T17:41:30.251Z,30.32
2023-07-07T17:43:57.357Z,30.34
2023-07-07T17:46:33.856Z,30.43
2023-07-07T17:49:06.394Z,29.81
2023-07-07T17:51:35.756Z,29.67
2023-07-07T17:54:02.762Z,29.47
2023-07-07T17:56:33.373Z,29.00
2023-07-07T17:59:01.506Z,28.98
2023-07-07T18:01:29.205Z,28.99
2023-07-07T18:03:56.593Z,28.91
2023-07-07T18:06:28.575Z,28.71
2023-07-07T18:08:56.733Z,28.78
2023-07-07T18:11:26.598Z,28.76
2023-07-07T18:13:54.236Z,28.52
2023-07-07T18:16:29.589Z,28.16
2023-07-07T18:19:16.151Z,27.90
2023-07-07T18:21:52.361Z,27.87
2023-07-07T18:24:23.438Z,27.65
2023-07-07T18:26:50.492Z,27.34
2023-07-07T18:29:23.666Z,27.22
2023-07-07T18:31:51.037Z,26.99
2023-07-07T18:34:18.099Z,26.89
2023-07-07T18:36:49.050Z,26.51
2023-07-07T18:39:22.730Z,26.53
2023-07-07T18:41:52.714Z,26.70
2023-07-07T18:44:21.443Z,26.53
2023-07-07T18:46:48.977Z,26.22
2023-07-07T18:49:17.815Z,26.22
2023-07-07T18:51:47.572Z,26.01
2023-07-07T18:54:16.467Z,25.79
2023-07-07T18:56:47.655Z,25.63
2023-07-07T18:59:22.640Z,25.52
2023-07-07T19:01:50.370Z,25.53
2023-07-07T19:04:17.493Z,25.27
2023-07-07T19:06:46.135Z,25.23
2023-07-07T19:09:23.020Z,25.06
2023-07-07T19:11:54.143Z,24.90
2023-07-07T19:14:21.698Z,24.82
2023-07-07T19:16:52.151Z,24.48
2023-07-07T19:19:27.563Z,24.01
2023-07-07T19:21:54.907Z,23.85
2023-07-07T19:24:22.526Z,23.97
2023-07-07T19:26:53.770Z,23.75
2023-07-07T19:29:20.703Z,23.67
2023-07-07T19:31:48.079Z,23.65
2023-07-07T19:34:14.953Z,23.52
2023-07-07T19:36:43.609Z,23.20
2023-07-07T19:39:22.154Z,23.09
2023-07-07T19:41:50.969Z,23.09
2023-07-07T19:44:20.300Z,22.92
2023-07-07T19:46:47.546Z,22.77
2023-07-07T19:49:19.039Z,22.77
2023-07-07T19:51:46.982Z,22.65
2023-07-07T19:54:14.160Z,22.58
2023-07-07T19:56:41.071Z,22.42
2023-07-07T19:59:13.370Z,22.37
2023-07-07T20:01:40.442Z,21.97
2023-07-07T20:04:07.390Z,21.83
2023-07-07T20:06:41.871Z,21.69
2023-07-07T20:09:21.287Z,21.65
2023-07-07T20:11:49.412Z,21.42
2023-07-07T20:14:16.858Z,21.17
2023-07-07T20:16:51.099Z,20.76
2023-07-07T20:19:21.958Z,20.81
2023-07-07T20:21:50.265Z,20.60
2023-07-07T20:24:27.285Z,20.50
2023-07-07T20:26:59.293Z,20.44
2023-07-07T20:29:31.010Z,20.69
2023-07-07T20:31:57.987Z,20.69
2023-07-07T20:34:25.536Z,20.51
2023-07-07T20:36:52.357Z,20.40
2023-07-07T20:39:21.605Z,20.22
2023-07-07T20:41:49.874Z,20.33
2023-07-07T20:44:17.643Z,20.25
2023-07-07T20:46:46.685Z,20.33
2023-07-07T20:49:19.531Z,20.16
2023-07-07T20:51:47.806Z,20.31
2023-07-07T20:54:15.169Z,20.20
2023-07-07T20:56:42.382Z,20.12
2023-07-07T20:59:25.883Z,20.00
2023-07-07T21:01:56.096Z,20.17
2023-07-07T21:04:23.390Z,20.12
2023-07-07T21:06:52.650Z,19.99
2023-07-07T21:09:19.784Z,20.05
2023-07-07T21:11:46.853Z,20.00
2023-07-07T21:14:14.074Z,20.02
2023-07-07T21:16:45.793Z,19.97
2023-07-07T21:19:13.090Z,19.97
2023-07-07T21:21:40.969Z,20.07
2023-07-07T21:24:08.534Z,20.04
2023-07-07T21:26:36.491Z,19.99
2023-07-07T21:29:04.012Z,19.98
2023-07-07T21:31:31.676Z,19.90
2023-07-07T21:34:00.718Z,19.98
2023-07-07T21:36:34.163Z,19.82
2023-07-07T21:39:27.546Z,20.02
2023-07-07T21:42:10.805Z,19.93
2023-07-07T21:44:41.358Z,19.52
2023-07-07T21:47:17.378Z,19.44
2023-07-07T21:49:45.981Z,19.59
2023-07-07T21:52:16.039Z,19.48
2023-07-07T21:54:43.417Z,19.56
2023-07-07T21:57:37.587Z,19.58
2023-07-07T22:00:13.031Z,19.47
2023-07-07T22:02:41.852Z,19.20
2023-07-07T22:05:11.313Z,18.76
2023-07-07T22:07:38.489Z,18.84
2023-07-07T22:10:28.977Z,18.74
2023-07-07T22:12:57.103Z,18.55
2023-07-07T22:15:24.156Z,18.36
2023-07-07T22:17:51.586Z,18.36
2023-07-07T22:20:39.325Z,18.04
2023-07-07T22:23:09.687Z,18.29
2023-07-07T22:25:36.823Z,18.64
2023-07-07T22:28:10.736Z,18.69
2023-07-07T22:30:41.633Z,18.69
2023-07-07T22:33:13.423Z,18.92
2023-07-07T22:35:40.580Z,18.82
2023-07-07T22:38:28.427Z,19.00
2023-07-07T22:40:58.372Z,19.15
2023-07-07T22:43:27.909Z,19.12
2023-07-07T22:46:01.400Z,18.98
2023-07-07T22:48:29.471Z,18.98
2023-07-07T22:50:57.612Z,18.86
2023-07-07T22:53:25.017Z,18.96
2023-07-07T22:55:53.179Z,18.95
2023-07-07T22:58:22.236Z,19.25
2023-07-07T23:00:49.982Z,19.30
2023-07-07T23:03:17.401Z,19.21
2023-07-07T23:05:46.715Z,19.03
2023-07-07T23:08:26.300Z,18.96
2023-07-07T23:10:53.955Z,18.77
2023-07-07T23:13:21.130Z,18.65
2023-07-07T23:15:48.716Z,18.72
2023-07-07T23:18:17.129Z,18.71
2023-07-07T23:20:44.314Z,18.70
2023-07-07T23:23:21.776Z,18.61
2023-07-07T23:25:58.029Z,18.59
2023-07-07T23:28:27.859Z,18.39
2023-07-07T23:31:05.866Z,18.32
2023-07-07T23:33:36.873Z,18.16
2023-07-07T23:36:19.574Z,18.13
2023-07-07T23:38:47.187Z,18.10
2023-07-07T23:41:14.550Z,18.16
2023-07-07T23:43:42.259Z,18.20
2023-07-07T23:46:11.784Z,18.31
2023-07-07T23:48:38.757Z,18.51
2023-07-07T23:51:05.803Z,18.48
2023-07-07T23:53:32.694Z,18.29
2023-07-07T23:55:59.636Z,17.90
2023-07-07T23:58:28.800Z,17.79
